createdAt,value
2018-12-11T04:55:53.173Z,1.30
2018-12-11T04:58:20.859Z,0.70
2018-12-11T05:00:48.549Z,1.13
2018-12-11T05:03:16.311Z,1.40
2018-12-11T05:05:44.345Z,1.40
2018-12-11T05:08:15.954Z,1.00
2018-12-11T05:10:44.195Z,1.20
2018-12-11T05:13:12.349Z,1.17
2018-12-11T05:15:40.317Z,1.40
2018-12-11T05:18:08.010Z,0.77
2018-12-11T05:20:35.787Z,1.03
2018-12-11T05:23:03.561Z,1.13
2018-12-11T05:25:31.622Z,1.20
2018-12-11T05:27:59.694Z,1.27
2018-12-11T05:30:27.820Z,1.57
2018-12-11T05:32:55.480Z,1.67
2018-12-11T05:35:23.650Z,1.23
2018-12-11T05:37:51.276Z,1.73
2018-12-11T05:40:18.972Z,1.43
2018-12-11T05:42:46.916Z,1.13
2018-12-11T05:45:14.733Z,3.90
2018-12-11T05:47:43.086Z,1.17
2018-12-11T05:50:11.773Z,1.50
2018-12-11T05:52:42.199Z,1.10
2018-12-11T05:55:11.527Z,1.43
2018-12-11T05:57:40.343Z,1.30
2018-12-11T06:00:10.909Z,1.20
2018-12-11T06:02:38.651Z,2.87
2018-12-11T06:05:07.072Z,2.10
2018-12-11T06:07:35.289Z,1.43
2018-12-11T06:10:02.908Z,1.63
2018-12-11T06:12:30.837Z,1.73
2018-12-11T06:14:59.273Z,1.20
2018-12-11T06:17:26.874Z,1.20
2018-12-11T06:19:54.916Z,1.03
2018-12-11T06:22:22.510Z,1.00
2018-12-11T06:24:50.324Z,2.70
2018-12-11T06:27:17.945Z,1.20
2018-12-11T06:29:45.635Z,0.80
2018-12-11T06:32:14.309Z,0.60
2018-12-11T06:34:42.014Z,1.03
2018-12-11T06:37:09.885Z,1.03
2018-12-11T06:39:37.543Z,0.87
2018-12-11T06:42:05.701Z,0.87
2018-12-11T06:44:33.676Z,1.00
2018-12-11T06:47:01.278Z,0.80
2018-12-11T06:49:28.902Z,1.10
2018-12-11T06:51:56.482Z,1.17
2018-12-11T06:54:26.112Z,1.57
2018-12-11T06:56:53.877Z,1.40
2018-12-11T06:59:21.602Z,0.90
2018-12-11T07:01:50.203Z,0.70
2018-12-11T07:04:18.768Z,1.03
2018-12-11T07:06:46.421Z,1.07
2018-12-11T07:09:14.705Z,0.83
2018-12-11T07:11:42.450Z,1.20
2018-12-11T07:14:10.948Z,0.80
2018-12-11T07:16:39.234Z,0.70
2018-12-11T07:19:06.933Z,1.00
2018-12-11T07:21:34.752Z,1.27
2018-12-11T07:24:02.358Z,2.83
2018-12-11T07:26:30.071Z,1.23
2018-12-11T07:28:59.316Z,1.30
2018-12-11T07:31:26.992Z,0.83
2018-12-11T07:33:54.679Z,1.53
2018-12-11T07:36:22.376Z,2.43
2018-12-11T07:38:50.340Z,1.63
2018-12-11T07:41:18.373Z,2.23
2018-12-11T07:43:46.013Z,1.33
2018-12-11T07:46:14.281Z,1.43
2018-12-11T07:48:42.533Z,1.50
2018-12-11T07:51:10.925Z,0.73
2018-12-11T07:53:38.605Z,1.00
2018-12-11T07:56:06.269Z,1.23
2018-12-11T07:58:35.156Z,1.30
2018-12-11T08:01:03.380Z,1.00
2018-12-11T08:03:31.050Z,1.00
2018-12-11T08:05:58.925Z,1.00
2018-12-11T08:08:27.015Z,0.90
2018-12-11T08:10:55.253Z,1.10
2018-12-11T08:13:22.953Z,1.27
2018-12-11T08:15:51.221Z,1.57
2018-12-11T08:18:18.859Z,1.10
2018-12-11T08:20:46.470Z,1.67
2018-12-11T08:23:14.809Z,1.77
2018-12-11T08:25:43.275Z,1.80
2018-12-11T08:28:11.156Z,1.73
2018-12-11T08:30:41.951Z,1.20
2018-12-11T08:33:09.627Z,1.47
2018-12-11T08:35:37.255Z,1.37
2018-12-11T08:38:05.520Z,1.53
2018-12-11T08:40:33.382Z,2.70
2018-12-11T08:43:01.343Z,1.60
2018-12-11T08:45:29.116Z,1.10
2018-12-11T08:47:57.375Z,1.13
2018-12-11T08:50:26.041Z,1.53
2018-12-11T08:52:54.522Z,1.20
2018-12-11T08:55:22.452Z,1.20
2018-12-11T08:57:50.913Z,2.40
2018-12-11T09:00:21.152Z,0.70
2018-12-11T09:02:50.053Z,1.63
2018-12-11T09:05:18.482Z,1.37
2018-12-11T09:07:46.168Z,1.40
2018-12-11T09:10:13.945Z,1.47
2018-12-11T09:12:43.787Z,1.43
2018-12-11T09:15:14.455Z,2.03
2018-12-11T09:17:46.420Z,1.53
2018-12-11T09:20:15.086Z,0.87
2018-12-11T09:22:47.562Z,1.57
2018-12-11T09:25:17.149Z,1.67
2018-12-11T09:27:45.369Z,1.43
2018-12-11T09:30:13.036Z,1.63
2018-12-11T09:32:45.330Z,1.53
2018-12-11T09:35:14.174Z,1.20
2018-12-11T09:37:43.884Z,2.03
2018-12-11T09:40:11.619Z,1.57
2018-12-11T09:42:40.133Z,1.13
2018-12-11T09:45:13.068Z,1.90
2018-12-11T09:47:40.777Z,2.30
2018-12-11T09:50:08.642Z,1.73
2018-12-11T09:52:41.421Z,1.27
2018-12-11T09:55:12.591Z,1.57
2018-12-11T09:57:45.077Z,1.87
2018-12-11T10:00:14.212Z,1.93
2018-12-11T10:02:45.088Z,1.17
2018-12-11T10:05:14.292Z,1.90
2018-12-11T10:07:43.035Z,1.63
2018-12-11T10:10:14.006Z,1.43
2018-12-11T10:12:43.818Z,1.77
2018-12-11T10:15:14.005Z,1.43
2018-12-11T10:17:41.938Z,1.83
2018-12-11T10:20:11.671Z,1.53
2018-12-11T10:22:41.841Z,2.37
2018-12-11T10:25:10.830Z,2.30
2018-12-11T10:27:40.649Z,2.00
2018-12-11T10:30:11.023Z,3.10
2018-12-11T10:32:39.785Z,2.10
2018-12-11T10:35:08.317Z,2.50
2018-12-11T10:37:36.130Z,1.43
2018-12-11T10:40:04.039Z,2.10
2018-12-11T10:42:38.869Z,1.60
2018-12-11T10:45:06.677Z,1.83
2018-12-11T10:47:34.437Z,1.73
2018-12-11T10:50:02.254Z,1.60
2018-12-11T10:52:30.426Z,3.87
2018-12-11T10:54:58.370Z,2.70
2018-12-11T10:57:26.934Z,2.00
2018-12-11T10:59:57.416Z,1.90
2018-12-11T11:02:27.944Z,1.70
2018-12-11T11:04:58.574Z,2.07
2018-12-11T11:07:28.226Z,1.80
2018-12-11T11:09:56.357Z,1.90
2018-12-11T11:12:24.375Z,2.47
2018-12-11T11:14:52.898Z,2.60
2018-12-11T11:17:21.335Z,1.90
2018-12-11T11:19:48.985Z,2.70
2018-12-11T11:22:19.325Z,2.33
2018-12-11T11:24:47.360Z,1.50
2018-12-11T11:27:15.529Z,2.20
2018-12-11T11:29:43.993Z,1.97
2018-12-11T11:32:12.053Z,1.83
2018-12-11T11:34:40.636Z,1.60
2018-12-11T11:37:08.279Z,1.80
2018-12-11T11:39:38.162Z,1.93
2018-12-11T11:42:05.833Z,1.33
2018-12-11T11:44:35.247Z,1.40
2018-12-11T11:47:02.887Z,1.70
2018-12-11T11:49:31.213Z,1.70
2018-12-11T11:51:59.794Z,2.10
2018-12-11T11:54:27.795Z,1.57
2018-12-11T11:56:55.712Z,2.03
2018-12-11T11:59:23.864Z,2.20
2018-12-11T12:01:53.121Z,3.30
2018-12-11T12:04:27.273Z,2.20
2018-12-11T12:06:56.036Z,2.60
2018-12-11T12:09:23.649Z,3.40
2018-12-11T12:11:52.047Z,2.17
2018-12-11T12:14:19.897Z,2.17
2018-12-11T12:16:47.573Z,3.40
2018-12-11T12:19:15.421Z,2.37
2018-12-11T12:21:43.957Z,2.33
2018-12-11T12:24:13.180Z,2.33
2018-12-11T12:26:46.065Z,2.63
2018-12-11T12:29:15.591Z,3.83
2018-12-11T12:31:43.211Z,2.77
2018-12-11T12:34:11.893Z,3.17
2018-12-11T12:36:39.766Z,2.20
2018-12-11T12:39:08.627Z,2.47
2018-12-11T12:41:38.125Z,2.03
2018-12-11T12:44:05.924Z,2.10
2018-12-11T12:46:33.515Z,3.40
2018-12-11T12:49:01.629Z,2.70
2018-12-11T12:51:31.877Z,5.30
2018-12-11T12:54:02.711Z,4.07
2018-12-11T12:56:30.371Z,2.87
2018-12-11T12:58:59.840Z,3.60
2018-12-11T13:01:29.250Z,3.87
2018-12-11T13:03:57.254Z,3.10
2018-12-11T13:06:29.985Z,2.70
2018-12-11T13:08:59.439Z,3.07
2018-12-11T13:11:27.097Z,3.47
2018-12-11T13:13:56.310Z,3.67
2018-12-11T13:16:24.214Z,2.87
2018-12-11T13:18:54.385Z,2.67
2018-12-11T13:21:22.102Z,3.17
2018-12-11T13:23:51.915Z,2.57
2018-12-11T13:26:19.630Z,4.63
2018-12-11T13:28:48.579Z,3.20
2018-12-11T13:31:16.602Z,3.60
2018-12-11T13:33:46.296Z,2.93
2018-12-11T13:36:14.449Z,2.17
2018-12-11T13:38:43.219Z,2.40
2018-12-11T13:41:11.324Z,2.67
2018-12-11T13:43:39.686Z,2.80
2018-12-11T13:46:07.380Z,2.40
2018-12-11T13:48:35.544Z,3.03
2018-12-11T13:51:04.094Z,3.03
2018-12-11T13:53:52.527Z,3.07
2018-12-11T13:56:20.692Z,3.63
2018-12-11T13:58:49.317Z,2.87
2018-12-11T14:01:17.001Z,2.67
2018-12-11T14:03:47.554Z,2.57
2018-12-11T14:06:16.929Z,2.37
2018-12-11T14:08:44.729Z,1.87
2018-12-11T14:11:13.483Z,2.40
2018-12-11T14:13:41.165Z,2.50
2018-12-11T14:16:08.842Z,3.07
2018-12-11T14:18:37.678Z,1.90
2018-12-11T14:21:05.486Z,2.40
2018-12-11T14:23:36.646Z,1.87
2018-12-11T14:26:06.064Z,1.50
2018-12-11T14:31:09.568Z,1.70
2018-12-11T14:33:39.343Z,1.40
2018-12-11T14:36:07.615Z,1.17
2018-12-11T14:38:35.909Z,2.27
2018-12-11T14:41:09.054Z,2.50
2018-12-11T14:43:38.215Z,1.90
2018-12-11T14:46:05.947Z,1.70
2018-12-11T14:48:34.317Z,2.57
2018-12-11T14:51:03.245Z,1.67
2018-12-11T14:53:32.743Z,1.93
2018-12-11T14:56:01.159Z,1.33
2018-12-11T14:58:32.927Z,1.50
2018-12-11T15:01:01.517Z,3.53
2018-12-11T15:03:30.603Z,3.40
2018-12-11T15:05:59.962Z,3.30
2018-12-11T15:08:28.141Z,3.40
2018-12-11T15:10:55.942Z,2.70
2018-12-11T15:13:23.611Z,4.20
2018-12-11T15:15:51.778Z,4.27
2018-12-11T15:18:19.702Z,3.23
2018-12-11T15:20:50.087Z,4.60
2018-12-11T15:23:17.716Z,6.30
2018-12-11T15:25:45.783Z,5.50
2018-12-11T15:28:13.422Z,3.10
2018-12-11T15:30:41.002Z,1.83
2018-12-11T15:33:08.615Z,2.20
2018-12-11T15:35:37.560Z,3.70
2018-12-11T15:38:15.479Z,2.07
2018-12-11T15:40:43.247Z,2.70
2018-12-11T15:43:11.987Z,1.40
2018-12-11T15:45:40.049Z,1.67
2018-12-11T15:48:07.712Z,1.33
2018-12-11T15:50:35.989Z,2.83
2018-12-11T15:53:05.829Z,2.07
2018-12-11T15:55:35.373Z,1.50
2018-12-11T15:58:02.966Z,1.60
2018-12-11T16:00:31.139Z,1.57
2018-12-11T16:02:58.818Z,2.03
2018-12-11T16:05:26.378Z,1.70
2018-12-11T16:07:54.022Z,1.60
2018-12-11T16:10:21.687Z,1.60
2018-12-11T16:12:49.260Z,2.30
2018-12-11T16:15:16.842Z,2.10
2018-12-11T16:17:44.408Z,1.50
2018-12-11T16:20:12.045Z,2.87
2018-12-11T16:22:39.686Z,2.60
2018-12-11T16:25:11.239Z,2.00
2018-12-11T16:27:38.920Z,2.00
2018-12-11T16:30:06.556Z,1.53
2018-12-11T16:32:34.131Z,1.60
2018-12-11T16:35:01.832Z,1.60
2018-12-11T16:37:29.589Z,1.23
2018-12-11T16:39:57.340Z,1.47
2018-12-11T16:42:25.017Z,1.70
2018-12-11T16:44:53.124Z,2.33
2018-12-11T16:47:20.814Z,1.40
2018-12-11T16:49:48.386Z,1.73
2018-12-11T16:52:16.001Z,1.97
2018-12-11T16:54:43.617Z,1.30
2018-12-11T16:57:11.293Z,1.23
2018-12-11T16:59:38.916Z,1.17
2018-12-11T17:02:06.620Z,2.00
2018-12-11T17:04:34.185Z,1.30
2018-12-11T17:07:02.943Z,1.50
2018-12-11T17:09:30.539Z,1.60
2018-12-11T17:11:58.600Z,1.80
2018-12-11T17:14:26.155Z,1.10
2018-12-11T17:16:54.639Z,1.40
2018-12-11T17:19:22.299Z,1.20
2018-12-11T17:21:49.966Z,1.03
2018-12-11T17:24:17.659Z,1.37
2018-12-11T17:26:45.264Z,1.30
2018-12-11T17:29:12.914Z,1.20
2018-12-11T17:31:40.425Z,1.30
2018-12-11T17:34:08.337Z,1.70
2018-12-11T17:36:36.012Z,1.67
2018-12-11T17:39:05.317Z,2.33
2018-12-11T17:41:34.697Z,2.30
2018-12-11T17:44:02.464Z,1.73
2018-12-11T17:46:30.046Z,2.90
2018-12-11T17:48:57.705Z,2.63
2018-12-11T17:51:25.800Z,1.70
2018-12-11T17:53:53.476Z,2.00
2018-12-11T17:56:21.062Z,2.57
2018-12-11T17:58:48.642Z,1.73
2018-12-11T18:01:16.983Z,1.53
2018-12-11T18:03:44.634Z,1.77
2018-12-11T18:06:12.405Z,1.67
2018-12-11T18:08:40.115Z,2.33
2018-12-11T18:11:09.111Z,2.50
2018-12-11T18:13:36.786Z,1.67
2018-12-11T18:16:04.788Z,1.90
2018-12-11T18:18:32.401Z,1.73
2018-12-11T18:21:00.065Z,2.33
2018-12-11T18:23:28.264Z,1.73
2018-12-11T18:25:56.019Z,1.90
2018-12-11T18:28:23.792Z,1.57
2018-12-11T18:30:53.506Z,2.10
2018-12-11T18:33:21.598Z,1.90
2018-12-11T18:35:52.211Z,2.30
2018-12-11T18:38:19.946Z,2.10
2018-12-11T18:40:47.575Z,2.03
2018-12-11T18:43:15.283Z,2.00
2018-12-11T18:45:43.757Z,2.30
2018-12-11T18:48:11.372Z,2.10
2018-12-11T18:50:40.068Z,1.80
2018-12-11T18:53:07.764Z,2.60
2018-12-11T18:55:36.381Z,1.70
2018-12-11T18:58:04.170Z,1.63
2018-12-11T19:00:31.705Z,1.73
2018-12-11T19:03:00.880Z,2.07
2018-12-11T19:05:28.937Z,1.60
2018-12-11T19:07:56.603Z,3.07
2018-12-11T19:10:24.627Z,2.20
2018-12-11T19:12:53.114Z,1.70
2018-12-11T19:15:20.922Z,1.93
2018-12-11T19:17:49.820Z,3.13
2018-12-11T19:20:18.150Z,2.90
2018-12-11T19:22:46.365Z,5.37
2018-12-11T19:25:16.786Z,2.00
2018-12-11T19:27:45.536Z,3.57
2018-12-11T19:30:13.244Z,2.00
2018-12-11T19:32:41.219Z,2.10
2018-12-11T19:35:09.395Z,2.50
2018-12-11T19:37:37.100Z,2.43
2018-12-11T19:40:05.850Z,1.70
2018-12-11T19:42:33.858Z,2.13
2018-12-11T19:45:01.521Z,1.50
2018-12-11T19:47:29.153Z,1.23
2018-12-11T19:50:03.576Z,1.50
2018-12-11T19:52:31.987Z,1.87
2018-12-11T19:54:59.600Z,1.50
2018-12-11T19:57:27.193Z,2.27
2018-12-11T19:59:54.799Z,1.53
2018-12-11T20:02:23.046Z,1.50
2018-12-11T20:04:51.941Z,1.57
2018-12-11T20:07:19.613Z,1.90
2018-12-11T20:09:52.639Z,1.30
2018-12-11T20:12:22.547Z,2.37
2018-12-11T20:14:50.550Z,1.70
2018-12-11T20:17:19.175Z,1.90
2018-12-11T20:19:48.256Z,1.77
2018-12-11T20:22:16.013Z,1.53
2018-12-11T20:24:44.526Z,2.97
2018-12-11T20:27:12.337Z,2.40
2018-12-11T20:29:40.934Z,1.73
2018-12-11T20:32:12.654Z,1.90
2018-12-11T20:34:40.344Z,2.40
2018-12-11T20:37:10.030Z,3.43
2018-12-11T20:39:37.787Z,2.67
2018-12-11T20:42:06.790Z,1.97
2018-12-11T20:44:34.500Z,2.20
2018-12-11T20:47:02.366Z,1.57
2018-12-11T20:49:30.271Z,2.27
2018-12-11T20:52:00.830Z,1.40
2018-12-11T20:54:30.896Z,1.53
2018-12-11T20:56:58.585Z,1.60
2018-12-11T20:59:29.223Z,2.10
2018-12-11T21:01:56.816Z,2.00
2018-12-11T21:04:24.398Z,1.77
2018-12-11T21:06:52.047Z,2.00
2018-12-11T21:09:19.980Z,1.43
2018-12-11T21:11:48.492Z,1.60
2018-12-11T21:14:16.266Z,1.77
2018-12-11T21:16:43.858Z,1.90
2018-12-11T21:19:11.957Z,1.63
2018-12-11T21:21:39.795Z,1.70
2018-12-11T21:24:07.663Z,2.00
2018-12-11T21:26:35.922Z,1.43
2018-12-11T21:29:03.829Z,1.90
2018-12-11T21:31:31.656Z,1.37
2018-12-11T21:34:00.355Z,1.60
2018-12-11T21:36:28.131Z,1.50
2018-12-11T21:38:55.792Z,1.60
2018-12-11T21:41:23.563Z,1.50
2018-12-11T21:43:51.525Z,1.37
2018-12-11T21:46:19.369Z,1.40
2018-12-11T21:48:52.338Z,1.67
2018-12-11T21:51:21.454Z,1.77
2018-12-11T21:53:50.399Z,1.57
2018-12-11T21:56:20.301Z,1.60
2018-12-11T21:58:52.465Z,2.03
2018-12-11T22:01:20.994Z,2.10
2018-12-11T22:03:52.728Z,1.80
2018-12-11T22:06:22.226Z,2.10
2018-12-11T22:08:50.637Z,1.60
2018-12-11T22:11:22.841Z,2.23
2018-12-11T22:13:50.931Z,1.87
2018-12-11T22:16:28.813Z,1.83
2018-12-11T22:18:56.699Z,1.33
2018-12-11T22:21:25.820Z,1.47
2018-12-11T22:23:55.035Z,1.43
2018-12-11T22:26:22.961Z,1.83
2018-12-11T22:28:51.344Z,1.57
2018-12-11T22:31:19.219Z,1.40
2018-12-11T22:33:47.598Z,1.60
2018-12-11T22:36:16.341Z,1.30
2018-12-11T22:38:44.389Z,1.30
2018-12-11T22:41:12.232Z,1.33
2018-12-11T22:43:39.904Z,1.43
2018-12-11T22:46:08.581Z,1.13
2018-12-11T22:48:38.193Z,1.57
2018-12-11T22:51:06.832Z,1.37
2018-12-11T22:53:34.616Z,1.97
2018-12-11T22:56:02.363Z,2.87
2018-12-11T22:58:30.000Z,3.10
2018-12-11T23:00:58.429Z,4.43
2018-12-11T23:03:27.509Z,2.30
2018-12-11T23:05:55.319Z,1.60
2018-12-11T23:08:22.971Z,1.30
2018-12-11T23:10:52.800Z,1.30
2018-12-11T23:13:20.677Z,2.30
2018-12-11T23:15:48.532Z,6.60
2018-12-11T23:18:16.357Z,4.17
2018-12-11T23:20:45.992Z,1.70
